Time;durP1;ratioP1;P1;durP2;ratioP2;P2;SDS_P1;SDS_P2;PMS_P1;PMS_P2;Temp;Humidity;BMP_temperature;BMP_pressure;BME280_temperature;BME280_humidity;BME280_pressure;Samples;Min_cycle;Max_cycle;Signal;HPM_P1;HPM_P2
2021/10/28 00:12:22;;;;;;;33.20;26.40;;;8.10;99.90;;;;;;5006403;28;20430;-90
2021/10/28 00:14:54;;;;;;;31.77;26.63;;;8.00;99.90;;;;;;5017977;28;20439;-90
2021/10/28 00:17:37;;;;;;;35.20;28.73;;;8.00;99.90;;;;;;5017356;28;20498;-90
2021/10/28 00:20:07;;;;;;;34.33;27.07;;;7.90;99.90;;;;;;5002055;28;20447;-90
2021/10/28 00:22:35;;;;;;;37.43;27.30;;;8.00;99.90;;;;;;4983693;28;20495;-89
2021/10/28 00:25:01;;;;;;;40.40;28.87;;;8.00;99.90;;;;;;4985294;28;20539;-91
2021/10/28 00:27:30;;;;;;;35.77;29.27;;;8.10;99.90;;;;;;4978314;28;20467;-91
2021/10/28 00:29:56;;;;;;;38.73;28.20;;;8.10;99.90;;;;;;4978228;28;20491;-90
2021/10/28 00:32:23;;;;;;;39.83;29.30;;;8.10;99.90;;;;;;4984227;28;20426;-91
2021/10/28 00:34:50;;;;;;;37.73;28.20;;;8.00;99.90;;;;;;4994342;28;20447;-91
2021/10/28 00:37:17;;;;;;;39.60;28.80;;;8.00;99.90;;;;;;4984263;28;20556;-90
2021/10/28 00:39:45;;;;;;;42.30;27.63;;;8.00;99.90;;;;;;4997685;28;20428;-88
2021/10/28 00:42:13;;;;;;;38.60;27.27;;;8.00;99.90;;;;;;4992880;28;20452;-91
2021/10/28 00:44:42;;;;;;;35.87;25.87;;;8.00;99.90;;;;;;4985310;28;20482;-88
2021/10/28 00:47:09;;;;;;;39.07;27.17;;;8.10;99.90;;;;;;4998423;28;20458;-89
2021/10/28 00:49:35;;;;;;;33.83;26.40;;;8.00;99.90;;;;;;4978134;28;20441;-90
2021/10/28 00:52:02;;;;;;;33.40;25.30;;;8.00;99.90;;;;;;4975023;28;20437;-90
2021/10/28 00:54:29;;;;;;;31.60;25.03;;;8.00;99.90;;;;;;4979185;28;20448;-91
2021/10/28 00:56:56;;;;;;;34.10;24.77;;;8.00;99.90;;;;;;4981830;28;20475;-91
2021/10/28 00:59:23;;;;;;;33.90;25.70;;;8.00;99.90;;;;;;4981170;28;20452;-91
2021/10/28 01:01:51;;;;;;;31.17;25.13;;;7.90;99.90;;;;;;4982968;28;20444;-91
2021/10/28 01:04:18;;;;;;;37.60;27.53;;;7.90;99.90;;;;;;4981662;28;20444;-91
2021/10/28 01:06:48;;;;;;;31.77;25.67;;;7.90;99.90;;;;;;4981234;28;20451;-92
2021/10/28 01:09:15;;;;;;;32.87;25.23;;;7.90;99.90;;;;;;4981509;28;20432;-91
2021/10/28 01:11:42;;;;;;;36.57;25.37;;;7.90;99.90;;;;;;4981188;28;21013;-90
2021/10/28 01:14:09;;;;;;;37.13;25.30;;;7.90;99.90;;;;;;4980825;28;20459;-91
2021/10/28 01:16:36;;;;;;;31.07;24.13;;;7.90;99.90;;;;;;4980951;28;20455;-90
2021/10/28 01:19:04;;;;;;;31.27;23.37;;;7.90;99.90;;;;;;4981278;28;20457;-91
2021/10/28 01:21:33;;;;;;;34.47;25.00;;;7.80;99.90;;;;;;4991410;28;20452;-90
2021/10/28 01:24:00;;;;;;;30.13;23.30;;;7.80;99.90;;;;;;4992565;28;20447;-91
2021/10/28 01:26:27;;;;;;;32.50;24.00;;;7.80;99.90;;;;;;4982582;28;20454;-90
2021/10/28 01:28:56;;;;;;;33.03;24.60;;;7.70;99.90;;;;;;4984566;28;20495;-90
2021/10/28 01:31:28;;;;;;;35.80;25.33;;;7.70;99.90;;;;;;4985287;28;20492;-92
2021/10/28 01:33:57;;;;;;;31.13;24.87;;;7.70;99.90;;;;;;4984240;28;20820;-91
2021/10/28 01:36:25;;;;;;;39.77;26.23;;;7.60;99.90;;;;;;4982412;28;20488;-92
2021/10/28 01:38:58;;;;;;;26.83;21.90;;;7.60;99.90;;;;;;4980221;28;20993;-91
2021/10/28 01:41:27;;;;;;;31.47;24.70;;;7.60;99.90;;;;;;4988307;28;20491;-90
2021/10/28 01:43:55;;;;;;;34.10;24.80;;;7.40;99.90;;;;;;4982586;28;20472;-91
2021/10/28 01:46:23;;;;;;;31.63;24.27;;;7.50;99.90;;;;;;4980623;28;20826;-91
2021/10/28 01:48:50;;;;;;;28.30;23.20;;;7.40;99.90;;;;;;4982610;28;20460;-91
2021/10/28 01:51:21;;;;;;;35.13;26.97;;;7.40;99.90;;;;;;4982538;28;20483;-92
2021/10/28 01:53:48;;;;;;;36.77;25.40;;;7.40;99.90;;;;;;4979727;28;20456;-91
2021/10/28 01:56:16;;;;;;;36.77;24.90;;;7.50;99.90;;;;;;4980376;28;20887;-91
2021/10/28 01:58:43;;;;;;;39.33;27.93;;;7.50;99.90;;;;;;4979750;28;20497;-91
2021/10/28 02:01:10;;;;;;;34.57;26.43;;;7.50;99.90;;;;;;4979843;28;20456;-91
2021/10/28 02:03:37;;;;;;;35.10;25.97;;;7.50;99.90;;;;;;4979086;28;20530;-90
2021/10/28 02:06:04;;;;;;;31.50;24.43;;;7.50;99.90;;;;;;4979452;28;20945;-91
2021/10/28 02:08:31;;;;;;;36.60;26.63;;;7.50;99.90;;;;;;4984492;28;20471;-90
2021/10/28 02:10:58;;;;;;;37.23;24.63;;;7.50;99.90;;;;;;4996193;28;20484;-90
2021/10/28 02:13:27;;;;;;;32.53;24.80;;;7.40;99.90;;;;;;4983281;28;20963;-90
2021/10/28 02:15:54;;;;;;;39.53;25.57;;;7.40;99.90;;;;;;4986822;28;20445;-91
2021/10/28 02:18:21;;;;;;;38.53;27.00;;;7.40;99.90;;;;;;4979318;28;20843;-92
2021/10/28 02:20:48;;;;;;;40.93;28.97;;;7.30;99.90;;;;;;4980809;28;20436;-91
2021/10/28 02:23:15;;;;;;;32.23;25.03;;;7.30;99.90;;;;;;4979268;28;20436;-91
2021/10/28 02:25:41;;;;;;;35.80;26.70;;;7.30;99.90;;;;;;4979267;28;20452;-91
2021/10/28 02:28:08;;;;;;;35.53;27.20;;;7.30;99.90;;;;;;5001373;23;20500;-93
2021/10/28 02:30:36;;;;;;;34.73;27.20;;;7.20;99.90;;;;;;4990745;28;20484;-90
2021/10/28 02:33:03;;;;;;;36.13;26.10;;;7.20;99.90;;;;;;4996089;28;20440;-91
2021/10/28 02:35:30;;;;;;;35.80;26.87;;;7.20;99.90;;;;;;4986710;28;20447;-90
2021/10/28 02:37:57;;;;;;;32.47;24.27;;;7.20;99.90;;;;;;4988491;28;20498;-91
2021/10/28 02:40:28;;;;;;;32.00;22.80;;;7.10;99.90;;;;;;4982831;28;20448;-92
2021/10/28 02:42:54;;;;;;;31.67;23.50;;;7.10;99.90;;;;;;4980652;28;20444;-91
2021/10/28 02:45:22;;;;;;;38.77;27.40;;;7.10;99.90;;;;;;4979013;28;20456;-91
2021/10/28 02:47:51;;;;;;;35.33;25.57;;;7.10;99.90;;;;;;4979396;28;20487;-92
2021/10/28 02:50:19;;;;;;;36.97;26.33;;;7.10;99.90;;;;;;4979571;28;20471;-92
2021/10/28 02:52:45;;;;;;;38.73;26.77;;;7.20;99.90;;;;;;4989543;28;20506;-91
2021/10/28 02:55:19;;;;;;;37.33;25.70;;;7.10;99.90;;;;;;4999501;28;20503;-91
2021/10/28 02:57:46;;;;;;;35.27;25.07;;;7.10;99.90;;;;;;4991827;28;20503;-91
2021/10/28 03:00:14;;;;;;;41.87;25.37;;;7.10;99.90;;;;;;4999554;28;20516;-91
2021/10/28 03:02:50;;;;;;;42.60;28.77;;;7.00;99.90;;;;;;4988637;28;20476;-91
2021/10/28 03:05:18;;;;;;;34.67;26.23;;;7.00;99.90;;;;;;4996221;28;20435;-92
2021/10/28 03:07:45;;;;;;;31.33;26.10;;;6.90;99.90;;;;;;4993252;28;20498;-91
2021/10/28 03:10:12;;;;;;;36.87;27.83;;;6.90;99.90;;;;;;4991766;28;20520;-92
2021/10/28 03:12:41;;;;;;;41.30;27.83;;;6.80;99.90;;;;;;4998996;28;20447;-92
2021/10/28 03:15:11;;;;;;;37.83;26.30;;;6.80;99.90;;;;;;4990913;28;20467;-92
2021/10/28 03:18:07;;;;;;;37.07;27.10;;;6.80;99.90;;;;;;4986128;28;20496;-91
2021/10/28 03:26:11;;;;;;;42.50;28.20;;;6.70;99.90;;;;;;4977548;28;20415;-91
2021/10/28 03:28:37;;;;;;;39.27;27.90;;;6.70;99.90;;;;;;4992776;28;20467;-91
2021/10/28 03:31:05;;;;;;;36.87;27.20;;;6.70;99.90;;;;;;4997475;28;20566;-90
2021/10/28 03:33:34;;;;;;;37.10;28.60;;;6.70;99.90;;;;;;4984230;28;20451;-91
2021/10/28 03:36:03;;;;;;;42.60;29.63;;;6.60;99.90;;;;;;4996891;28;20462;-91
2021/10/28 03:38:41;;;;;;;40.63;28.37;;;6.60;99.90;;;;;;5001540;28;20475;-91
2021/10/28 03:41:40;;;;;;;37.23;27.97;;;6.50;99.90;;;;;;5016390;28;20470;-92
2021/10/28 03:44:39;;;;;;;43.03;27.83;;;6.50;99.90;;;;;;4997023;28;20451;-91
2021/10/28 03:58:46;;;;;;;38.17;25.90;;;6.40;99.90;;;;;;4944870;29;20453;-91
2021/10/28 04:17:52;;;;;;;35.10;25.37;;;6.40;99.90;;;;;;4978581;28;20498;-90
2021/10/28 04:31:17;;;;;;;38.50;27.10;;;6.30;99.90;;;;;;4982972;28;20626;-90
2021/10/28 04:33:44;;;;;;;39.23;25.60;;;6.30;99.90;;;;;;4981385;28;20455;-91
2021/10/28 04:36:11;;;;;;;40.17;27.93;;;6.30;99.90;;;;;;4985524;28;20477;-90
2021/10/28 04:38:38;;;;;;;45.33;27.47;;;6.30;99.90;;;;;;4997967;28;20452;-90
2021/10/28 04:41:07;;;;;;;37.93;26.87;;;6.30;99.90;;;;;;5001873;28;20456;-90
2021/10/28 04:43:34;;;;;;;39.07;28.90;;;6.20;99.90;;;;;;5000423;28;20447;-90
2021/10/28 04:46:00;;;;;;;42.83;27.97;;;6.10;99.90;;;;;;4997677;28;20460;-90
2021/10/28 04:48:28;;;;;;;45.47;30.07;;;6.00;99.90;;;;;;5000669;28;20476;-89
2021/10/28 04:50:55;;;;;;;43.43;29.53;;;6.00;99.90;;;;;;5000230;28;20502;-90
2021/10/28 04:53:23;;;;;;;45.40;30.53;;;6.00;99.90;;;;;;4990734;28;20487;-89
2021/10/28 04:55:49;;;;;;;45.87;31.30;;;6.00;99.90;;;;;;4984343;28;20479;-90
2021/10/28 04:58:17;;;;;;;41.77;28.30;;;6.10;99.90;;;;;;4980988;28;20448;-90
2021/10/28 05:00:44;;;;;;;43.37;28.07;;;6.10;99.90;;;;;;4981843;28;20956;-91
2021/10/28 05:03:11;;;;;;;43.97;27.87;;;6.10;99.90;;;;;;4983131;28;20447;-90
2021/10/28 05:05:39;;;;;;;34.00;26.43;;;6.10;99.90;;;;;;4981449;28;20451;-90
2021/10/28 05:08:06;;;;;;;46.30;29.67;;;6.10;99.90;;;;;;5000740;28;20464;-89
2021/10/28 05:10:34;;;;;;;44.00;29.87;;;6.10;99.90;;;;;;4989780;28;20532;-91
2021/10/28 05:13:01;;;;;;;43.20;30.40;;;6.10;99.90;;;;;;4982254;28;20495;-90
2021/10/28 05:15:29;;;;;;;44.10;28.37;;;6.10;99.90;;;;;;4990099;28;20455;-90
2021/10/28 05:17:56;;;;;;;43.47;29.00;;;6.10;99.90;;;;;;5000390;28;20491;-90
2021/10/28 05:20:23;;;;;;;40.93;28.03;;;6.10;99.90;;;;;;4999612;28;20452;-89
2021/10/28 05:22:50;;;;;;;46.53;30.77;;;6.00;99.90;;;;;;4998917;28;20491;-90
2021/10/28 05:25:17;;;;;;;44.33;28.03;;;6.00;99.90;;;;;;4992628;28;20945;-90
2021/10/28 05:27:43;;;;;;;46.73;30.20;;;6.00;99.90;;;;;;4990251;28;20463;-90
2021/10/28 05:30:12;;;;;;;44.93;29.53;;;6.10;99.90;;;;;;4989886;28;20433;-90
2021/10/28 05:32:40;;;;;;;41.23;28.20;;;6.10;99.90;;;;;;4984995;28;20487;-90
2021/10/28 05:35:07;;;;;;;39.13;29.20;;;6.10;99.90;;;;;;4981649;28;20467;-91
2021/10/28 05:37:34;;;;;;;43.10;30.70;;;6.10;99.90;;;;;;4981198;28;20472;-91
2021/10/28 05:40:02;;;;;;;33.97;25.20;;;6.10;99.90;;;;;;4985263;28;20517;-89
2021/10/28 05:42:30;;;;;;;36.20;24.77;;;6.10;99.90;;;;;;4991728;28;20458;-91
2021/10/28 05:44:57;;;;;;;34.80;23.47;;;6.00;99.90;;;;;;4985718;28;20464;-91
2021/10/28 05:47:24;;;;;;;34.73;23.93;;;5.90;99.90;;;;;;4983530;28;20502;-91
2021/10/28 05:49:55;;;;;;;36.30;24.60;;;5.90;99.90;;;;;;4997429;28;20436;-88
2021/10/28 05:52:22;;;;;;;38.40;26.97;;;5.80;99.90;;;;;;4987887;28;20468;-91
2021/10/28 05:54:49;;;;;;;41.47;26.40;;;5.70;99.90;;;;;;4984794;28;20448;-90
2021/10/28 05:57:15;;;;;;;33.10;25.20;;;5.70;99.90;;;;;;4991160;28;21000;-90
2021/10/28 05:59:42;;;;;;;40.80;26.53;;;5.70;99.90;;;;;;4993518;28;20452;-91
2021/10/28 06:02:09;;;;;;;33.47;27.53;;;5.70;99.90;;;;;;4987873;28;20989;-91
2021/10/28 06:04:36;;;;;;;42.63;29.73;;;5.80;99.90;;;;;;4982222;28;20448;-90
2021/10/28 06:07:04;;;;;;;40.20;27.67;;;5.80;99.90;;;;;;4981923;28;20479;-91
2021/10/28 06:09:31;;;;;;;39.77;27.37;;;5.80;99.90;;;;;;5000001;28;20444;-89
2021/10/28 06:11:59;;;;;;;42.70;27.30;;;5.80;99.90;;;;;;4987976;28;20479;-90
2021/10/28 06:14:27;;;;;;;42.00;26.83;;;5.80;99.90;;;;;;4981832;28;20444;-90
2021/10/28 06:16:56;;;;;;;39.23;26.20;;;5.90;99.90;;;;;;4981802;28;20443;-89
2021/10/28 06:19:23;;;;;;;37.13;27.33;;;5.90;99.90;;;;;;4985307;28;20471;-90
2021/10/28 06:21:49;;;;;;;35.60;27.50;;;5.90;99.90;;;;;;4982332;28;20447;-91
2021/10/28 06:24:18;;;;;;;38.67;29.43;;;6.00;99.90;;;;;;4992405;28;20489;-89
2021/10/28 06:26:44;;;;;;;37.00;27.00;;;6.00;99.90;;;;;;5000175;28;20432;-91
2021/10/28 06:29:11;;;;;;;34.60;25.60;;;6.00;99.90;;;;;;4989874;28;20502;-88
2021/10/28 06:31:38;;;;;;;35.53;28.40;;;6.10;99.90;;;;;;4995241;28;20479;-88
2021/10/28 06:34:08;;;;;;;37.37;24.97;;;6.20;99.90;;;;;;4988085;28;20448;-88
2021/10/28 06:36:36;;;;;;;34.23;26.33;;;6.20;99.90;;;;;;4990735;28;20490;-88
2021/10/28 06:39:04;;;;;;;34.07;26.17;;;6.20;99.90;;;;;;4985736;28;20562;-88
2021/10/28 06:41:32;;;;;;;35.87;26.10;;;6.20;99.90;;;;;;4989126;28;20460;-88
2021/10/28 06:49:10;;;;;;;31.57;23.97;;;6.30;99.90;;;;;;3717680;23;20525;-88
2021/10/28 06:51:39;;;;;;;31.03;24.80;;;6.40;99.90;;;;;;5013789;28;20548;-89
2021/10/28 06:54:10;;;;;;;35.90;27.27;;;6.40;99.90;;;;;;5011192;28;20449;-87
2021/10/28 07:02:48;;;;;;;36.73;26.77;;;6.80;99.90;;;;;;4989477;28;20440;-89
2021/10/28 07:05:17;;;;;;;36.60;26.27;;;6.90;99.90;;;;;;5022282;28;20446;-89
2021/10/28 07:07:44;;;;;;;29.80;22.20;;;6.90;99.90;;;;;;5034653;28;20473;-88
2021/10/28 07:10:13;;;;;;;29.20;23.37;;;7.00;99.90;;;;;;5026570;28;20460;-89
2021/10/28 07:12:53;;;;;;;39.20;23.73;;;7.10;99.90;;;;;;5013403;28;20573;-87
2021/10/28 07:16:08;;;;;;;31.23;23.83;;;7.20;99.90;;;;;;5001913;28;20983;-92
2021/10/28 07:19:11;;;;;;;31.60;22.53;;;7.30;99.90;;;;;;4937891;29;20474;-89
2021/10/28 08:13:35;;;;;;;35.10;22.20;;;8.20;99.90;;;;;;4995640;28;20485;-85
2021/10/28 08:16:25;;;;;;;22.83;20.10;;;8.70;99.90;;;;;;4995271;28;20523;-87
2021/10/28 08:19:00;;;;;;;30.10;20.83;;;9.10;99.90;;;;;;4979663;28;20468;-85
2021/10/28 08:21:33;;;;;;;26.63;21.00;;;9.30;99.90;;;;;;4998451;28;20454;-85
2021/10/28 08:24:07;;;;;;;26.33;22.50;;;9.30;99.90;;;;;;4987043;28;20539;-85
2021/10/28 08:29:24;;;;;;;24.00;19.10;;;9.20;99.90;;;;;;4995237;28;20555;-85
2021/10/28 08:31:53;;;;;;;27.00;20.70;;;9.20;99.90;;;;;;4988295;28;21016;-85
2021/10/28 08:34:26;;;;;;;22.80;19.50;;;9.40;99.90;;;;;;4986484;28;20866;-87
2021/10/28 08:36:53;;;;;;;24.17;21.00;;;9.40;99.90;;;;;;4979275;28;20499;-86
2021/10/28 09:24:07;;;;;;;20.00;15.80;;;11.60;99.90;;;;;;5039243;28;20436;-84
2021/10/28 09:26:45;;;;;;;17.33;15.53;;;12.20;99.90;;;;;;5057042;28;20443;-88
2021/10/28 09:29:18;;;;;;;19.10;16.13;;;12.40;99.90;;;;;;5060532;28;20448;-88
2021/10/28 09:31:59;;;;;;;19.83;17.73;;;12.40;99.90;;;;;;5075540;28;20547;-88
2021/10/28 09:34:42;;;;;;;18.97;16.00;;;12.30;99.90;;;;;;5074166;28;20448;-88
2021/10/28 09:46:17;;;;;;;20.43;18.40;;;13.70;99.90;;;;;;5066620;28;20484;-88
2021/10/28 09:51:59;;;;;;;18.80;16.80;;;13.80;99.90;;;;;;5094217;28;20471;-86
2021/10/28 10:00:21;;;;;;;17.43;15.73;;;13.20;99.90;;;;;;5019407;28;20449;-88
2021/10/28 10:03:13;;;;;;;19.13;17.23;;;13.00;99.90;;;;;;5089198;28;20499;-87
2021/10/28 10:06:25;;;;;;;25.23;16.97;;;13.70;99.90;;;;;;5058337;28;20450;-89
2021/10/28 10:09:36;;;;;;;20.17;17.17;;;15.90;99.90;;;;;;5081280;28;20494;-86
2021/10/28 10:12:25;;;;;;;18.10;16.40;;;17.50;97.10;;;;;;5070554;28;20572;-88
2021/10/28 10:14:53;;;;;;;19.83;17.77;;;19.30;92.60;;;;;;5061930;28;20445;-87
2021/10/28 10:17:21;;;;;;;19.10;16.90;;;19.90;90.90;;;;;;5057422;28;20482;-87
2021/10/28 10:19:51;;;;;;;17.73;15.97;;;21.00;87.70;;;;;;5037394;28;20477;-87
2021/10/28 10:22:27;;;;;;;19.57;17.70;;;21.20;83.80;;;;;;5057625;28;20457;-88
2021/10/28 10:25:05;;;;;;;22.47;18.77;;;22.00;80.80;;;;;;5055938;28;20464;-88
2021/10/28 12:13:55;;;;;;;18.30;16.70;;;28.40;52.10;;;;;;5058309;28;20490;-89
2021/10/28 12:44:54;;;;;;;15.83;14.33;;;20.80;68.00;;;;;;5052338;28;20419;-91
2021/10/28 12:47:49;;;;;;;15.03;13.57;;;20.80;68.70;;;;;;5059174;28;20443;-88
2021/10/28 12:50:43;;;;;;;13.80;12.60;;;20.80;68.40;;;;;;5070318;28;20781;-89
2021/10/28 12:56:37;;;;;;;14.60;13.07;;;20.40;68.00;;;;;;5059618;28;20961;-89
2021/10/28 13:05:17;;;;;;;13.67;12.37;;;22.90;64.50;;;;;;5065953;28;20445;-91
2021/10/28 13:38:28;;;;;;;12.50;11.20;;;23.30;59.80;;;;;;5070388;28;20515;-90
2021/10/28 13:49:37;;;;;;;12.20;11.10;;;21.10;64.50;;;;;;5079464;28;20443;-88
2021/10/28 13:52:15;;;;;;;12.07;10.73;;;20.50;65.80;;;;;;5081725;28;20455;-91
2021/10/28 13:55:15;;;;;;;12.27;10.33;;;20.40;66.90;;;;;;5081632;28;20451;-89
2021/10/28 14:00:49;;;;;;;12.40;10.90;;;20.30;66.50;;;;;;5039724;28;20878;-88
2021/10/28 14:28:25;;;;;;;11.20;10.10;;;19.40;71.80;;;;;;5085486;28;20441;-87
2021/10/28 15:28:34;;;;;;;11.83;10.73;;;16.60;85.70;;;;;;5062964;28;20974;-90
2021/10/28 15:31:26;;;;;;;13.83;12.27;;;16.50;86.00;;;;;;5077270;28;20462;-90
2021/10/28 15:36:56;;;;;;;13.20;11.90;;;16.30;87.00;;;;;;4996151;28;20518;-89
2021/10/28 15:39:31;;;;;;;14.40;11.30;;;16.30;87.40;;;;;;5029333;28;20439;-88
2021/10/28 15:59:48;;;;;;;13.53;12.13;;;15.90;90.50;;;;;;5144163;27;20452;-87
2021/10/28 16:24:11;;;;;;;31.70;24.90;;;14.80;94.80;;;;;;5134447;28;20468;-88
2021/10/28 16:26:41;;;;;;;41.20;30.13;;;14.70;95.30;;;;;;5134145;27;20554;-88
2021/10/28 16:29:12;;;;;;;35.50;26.87;;;14.70;95.70;;;;;;5138901;27;20449;-91
2021/10/28 16:31:53;;;;;;;31.03;25.73;;;14.60;96.10;;;;;;5143532;27;20441;-90
2021/10/28 16:35:05;;;;;;;31.63;23.70;;;14.50;96.60;;;;;;5158299;27;20459;-92
2021/10/28 16:37:58;;;;;;;24.80;21.40;;;14.30;97.10;;;;;;5097573;27;20475;-92
2021/10/28 16:40:26;;;;;;;29.60;23.70;;;14.20;97.80;;;;;;5095106;28;20473;-89
2021/10/28 17:04:58;;;;;;;21.30;15.57;;;13.50;99.90;;;;;;3229204;26;20595;-88
2021/10/28 17:07:28;;;;;;;29.47;22.90;;;13.40;99.90;;;;;;5059931;28;20446;-89
2021/10/28 17:09:55;;;;;;;27.40;18.60;;;13.20;99.90;;;;;;5059701;28;20515;-90
2021/10/28 17:12:23;;;;;;;19.10;14.57;;;13.10;99.90;;;;;;5060284;28;20545;-89
2021/10/28 17:14:50;;;;;;;14.60;12.97;;;13.10;99.90;;;;;;5071235;28;20509;-89
2021/10/28 17:17:25;;;;;;;17.53;14.07;;;13.10;99.90;;;;;;5064873;28;20474;-91
2021/10/28 17:20:00;;;;;;;19.43;15.33;;;13.10;99.90;;;;;;5066207;28;20508;-91
2021/10/28 17:22:28;;;;;;;16.50;14.50;;;13.00;99.90;;;;;;5063438;28;20476;-90
2021/10/28 17:24:56;;;;;;;19.67;14.33;;;12.90;99.90;;;;;;5058941;28;20821;-90
2021/10/28 17:27:23;;;;;;;23.00;15.47;;;12.80;99.90;;;;;;5066851;28;20983;-90
2021/10/28 17:29:50;;;;;;;16.03;14.37;;;12.80;99.90;;;;;;5057989;28;20451;-90
2021/10/28 17:32:17;;;;;;;17.00;14.13;;;12.70;99.90;;;;;;5060551;28;20448;-89
2021/10/28 17:34:45;;;;;;;18.03;14.17;;;12.60;99.90;;;;;;5064948;28;20489;-90
2021/10/28 17:37:12;;;;;;;21.57;17.57;;;12.50;99.90;;;;;;5060196;28;20465;-89
2021/10/28 17:39:41;;;;;;;18.60;15.10;;;12.40;99.90;;;;;;5058671;28;20472;-90
2021/10/28 17:42:10;;;;;;;19.67;16.47;;;12.40;99.90;;;;;;5057330;28;20441;-91
2021/10/28 17:44:40;;;;;;;19.37;15.77;;;12.30;99.90;;;;;;5057516;28;20531;-91
2021/10/28 17:47:08;;;;;;;18.43;13.90;;;12.30;99.90;;;;;;5057665;28;20456;-92
2021/10/28 17:49:38;;;;;;;16.33;13.43;;;12.30;99.90;;;;;;5056623;28;20449;-91
2021/10/28 17:52:07;;;;;;;16.63;13.70;;;12.30;99.90;;;;;;5075790;28;20550;-90
2021/10/28 17:54:36;;;;;;;19.23;14.60;;;12.20;99.90;;;;;;5066358;28;20446;-90
2021/10/28 17:57:08;;;;;;;17.17;15.23;;;12.20;99.90;;;;;;5075309;28;20476;-90
2021/10/28 17:59:35;;;;;;;21.13;15.40;;;12.10;99.90;;;;;;5068523;28;20528;-90
2021/10/28 18:02:34;;;;;;;;;;;;;;;;;;;;;
2021/10/28 18:05:02;;;;;;;25.17;17.47;;;11.90;99.90;;;;;;5069843;28;20455;-89
2021/10/28 18:14:01;;;;;;;25.00;18.50;;;11.60;99.90;;;;;;5062942;28;20496;-89
2021/10/28 18:16:29;;;;;;;24.67;19.30;;;11.70;99.90;;;;;;5059961;28;20847;-89
2021/10/28 18:19:00;;;;;;;24.33;19.47;;;11.60;99.90;;;;;;5055490;28;20459;-89
2021/10/28 18:21:28;;;;;;;22.50;18.13;;;11.50;99.90;;;;;;5057224;28;20537;-91
2021/10/28 18:23:57;;;;;;;24.97;19.10;;;11.40;99.90;;;;;;5064350;28;20638;-90
2021/10/28 18:26:24;;;;;;;20.10;17.47;;;11.30;99.90;;;;;;5057278;28;20831;-90
2021/10/28 18:28:52;;;;;;;25.30;16.80;;;11.30;99.90;;;;;;5051908;28;20563;-90
2021/10/28 18:31:21;;;;;;;20.10;15.70;;;11.20;99.90;;;;;;5060133;28;20456;-89
2021/10/28 18:33:57;;;;;;;16.97;15.30;;;11.20;99.90;;;;;;5078036;28;20559;-89
2021/10/28 18:36:30;;;;;;;20.60;16.00;;;11.20;99.90;;;;;;5050724;28;20457;-90
2021/10/28 18:38:57;;;;;;;18.47;14.63;;;11.20;99.90;;;;;;5049648;28;20449;-90
2021/10/28 18:41:25;;;;;;;24.33;15.47;;;11.20;99.90;;;;;;5056013;28;20460;-89
2021/10/28 18:43:52;;;;;;;19.43;15.20;;;11.20;99.90;;;;;;5065928;28;20492;-89
2021/10/28 18:46:22;;;;;;;26.27;16.70;;;11.20;99.90;;;;;;5068273;28;20436;-89
2021/10/28 18:48:50;;;;;;;17.97;16.07;;;11.20;99.90;;;;;;5060449;28;20475;-89
2021/10/28 18:51:24;;;;;;;22.70;17.57;;;11.10;99.90;;;;;;5060658;28;20436;-90
2021/10/28 18:53:54;;;;;;;22.77;17.00;;;10.90;99.90;;;;;;5067553;28;20449;-89
2021/10/28 18:56:22;;;;;;;19.73;17.37;;;10.80;99.90;;;;;;5062924;28;20478;-89
2021/10/28 18:58:50;;;;;;;23.30;19.17;;;10.70;99.90;;;;;;5069422;28;20440;-89
2021/10/28 19:01:19;;;;;;;23.20;17.97;;;10.70;99.90;;;;;;5058437;28;20538;-88
2021/10/28 19:03:55;;;;;;;26.00;17.57;;;10.70;99.90;;;;;;5063178;28;20499;-89
2021/10/28 19:06:22;;;;;;;21.70;17.13;;;10.60;99.90;;;;;;5062927;28;20948;-91
2021/10/28 19:11:47;;;;;;;22.63;18.00;;;10.60;99.90;;;;;;5062298;28;20447;-90
2021/10/28 19:14:17;;;;;;;22.30;17.63;;;10.60;99.90;;;;;;5072406;28;20464;-90
2021/10/28 19:19:40;;;;;;;21.60;17.83;;;10.50;99.90;;;;;;5069571;28;20448;-91
2021/10/28 19:22:12;;;;;;;21.83;19.40;;;10.40;99.90;;;;;;5073180;28;20452;-90
2021/10/28 19:24:44;;;;;;;22.57;16.57;;;10.40;99.90;;;;;;5066116;28;20506;-92
2021/10/28 19:27:32;;;;;;;22.33;17.33;;;10.40;99.90;;;;;;5064514;28;20457;-90
2021/10/28 19:30:03;;;;;;;26.27;19.87;;;10.30;99.90;;;;;;5066863;28;20434;-86
2021/10/28 19:32:31;;;;;;;22.63;18.50;;;10.30;99.90;;;;;;5068771;28;20479;-78
2021/10/28 19:34:59;;;;;;;21.33;17.80;;;10.40;99.90;;;;;;5069629;28;20448;-80
2021/10/28 19:37:33;;;;;;;25.57;18.07;;;10.40;99.90;;;;;;5066895;28;20492;-80
2021/10/28 19:40:26;;;;;;;21.73;17.67;;;10.40;99.90;;;;;;5065991;28;20446;-78
2021/10/28 19:48:22;;;;;;;23.03;18.17;;;10.20;99.90;;;;;;5064222;28;20431;-80
2021/10/28 19:50:50;;;;;;;22.50;17.27;;;10.10;99.90;;;;;;5075068;28;20464;-76
2021/10/28 20:01:43;;;;;;;32.83;20.80;;;9.90;99.90;;;;;;5104044;22;20507;-92
2021/10/28 20:20:30;;;;;;;19.63;15.73;;;9.80;99.90;;;;;;5037644;28;20425;-89
2021/10/28 20:22:57;;;;;;;20.70;16.93;;;9.80;99.90;;;;;;5019135;28;20478;-91
2021/10/28 20:25:28;;;;;;;21.13;17.53;;;9.70;99.90;;;;;;5018431;28;20438;-89
2021/10/28 20:27:57;;;;;;;19.23;17.10;;;9.80;99.90;;;;;;5013695;28;20831;-88
2021/10/28 20:30:27;;;;;;;20.67;18.50;;;9.80;99.90;;;;;;5014881;28;20597;-89
2021/10/28 20:32:53;;;;;;;23.83;20.27;;;9.80;99.90;;;;;;5017590;28;20484;-89
2021/10/28 20:35:39;;;;;;;24.73;21.00;;;9.60;99.90;;;;;;5019205;28;20466;-89
2021/10/28 20:38:06;;;;;;;26.57;20.63;;;9.60;99.90;;;;;;5027587;28;20438;-90
2021/10/28 20:40:35;;;;;;;34.07;27.40;;;9.50;99.90;;;;;;5021588;28;20482;-90
2021/10/28 20:43:05;;;;;;;33.00;28.53;;;9.50;99.90;;;;;;5030386;28;20480;-89
2021/10/28 20:45:34;;;;;;;34.10;26.33;;;9.50;99.90;;;;;;5038658;28;20426;-90
2021/10/28 20:50:43;;;;;;;28.07;23.23;;;9.40;99.90;;;;;;5040621;28;20438;-89
2021/10/28 20:53:11;;;;;;;32.33;23.13;;;9.40;99.90;;;;;;5036529;28;20466;-89
2021/10/28 20:55:40;;;;;;;31.33;23.67;;;9.40;99.90;;;;;;5031870;28;20572;-90
2021/10/28 20:58:15;;;;;;;26.73;21.93;;;9.40;99.90;;;;;;5033039;28;20883;-89
2021/10/28 21:00:42;;;;;;;32.30;24.33;;;9.40;99.90;;;;;;5031841;28;20449;-89
2021/10/28 21:03:11;;;;;;;30.13;23.10;;;9.30;99.90;;;;;;5032767;28;20497;-90
2021/10/28 21:05:42;;;;;;;34.17;23.70;;;9.30;99.90;;;;;;5033547;28;20446;-90
2021/10/28 21:08:13;;;;;;;28.43;23.80;;;9.20;99.90;;;;;;5035701;28;20489;-90
2021/10/28 21:10:44;;;;;;;29.07;23.40;;;9.30;99.90;;;;;;5032077;28;20430;-90
2021/10/28 21:15:53;;;;;;;23.70;19.37;;;9.20;99.90;;;;;;5030242;28;20477;-88
2021/10/28 21:18:20;;;;;;;24.50;21.73;;;9.20;99.90;;;;;;5027728;28;20450;-88
2021/10/28 21:20:49;;;;;;;24.70;19.63;;;9.30;99.90;;;;;;5030899;28;20464;-89
2021/10/28 21:23:19;;;;;;;22.67;19.47;;;9.20;99.90;;;;;;5032935;28;20466;-88
2021/10/28 21:25:55;;;;;;;25.50;21.77;;;9.20;99.90;;;;;;5030681;28;20443;-90
2021/10/28 21:28:33;;;;;;;22.63;18.87;;;9.10;99.90;;;;;;5031802;28;20451;-90
2021/10/28 21:34:30;;;;;;;28.00;21.70;;;9.20;99.90;;;;;;5027472;28;20966;-91
2021/10/28 21:43:02;;;;;;;;;;;;;;;;;;;;;
2021/10/28 21:45:39;;;;;;;23.60;19.20;;;9.10;99.90;;;;;;5032783;28;20427;-91
2021/10/28 21:48:26;;;;;;;25.50;19.40;;;9.10;99.90;;;;;;5086752;22;20472;-90
2021/10/28 21:51:19;;;;;;;24.17;21.00;;;9.00;99.90;;;;;;5071424;28;20515;-91
2021/10/28 21:53:51;;;;;;;25.30;19.60;;;8.90;99.90;;;;;;5067590;28;20452;-91
2021/10/28 21:56:26;;;;;;;25.87;21.17;;;8.80;99.90;;;;;;5063888;28;20536;-90
2021/10/28 21:59:15;;;;;;;27.17;19.70;;;8.80;99.90;;;;;;5062765;28;20447;-90
2021/10/28 22:01:49;;;;;;;24.33;19.97;;;8.80;99.90;;;;;;5061439;28;20437;-90
2021/10/28 22:24:35;;;;;;;25.27;20.40;;;8.60;99.90;;;;;;5048842;28;20844;-92
2021/10/28 22:27:02;;;;;;;23.63;20.90;;;8.50;99.90;;;;;;5054904;28;20444;-90
2021/10/28 22:29:38;;;;;;;28.07;21.30;;;8.50;99.90;;;;;;5058222;28;20453;-93
2021/10/28 22:32:15;;;;;;;26.33;21.83;;;8.50;99.90;;;;;;5057865;28;20463;-90
2021/10/28 22:34:54;;;;;;;30.37;23.17;;;8.50;99.90;;;;;;5056062;28;20960;-89
2021/10/28 22:37:26;;;;;;;28.40;22.00;;;8.40;99.90;;;;;;5056721;28;20818;-90
2021/10/28 22:40:06;;;;;;;26.10;23.13;;;8.40;99.90;;;;;;5058566;28;20506;-88
2021/10/28 22:42:35;;;;;;;29.27;22.50;;;8.40;99.90;;;;;;5056713;28;20453;-90
2021/10/28 22:45:05;;;;;;;26.23;23.30;;;8.40;99.90;;;;;;5056801;28;20987;-90
2021/10/28 22:47:33;;;;;;;25.97;21.97;;;8.40;99.90;;;;;;5055963;28;20475;-89
2021/10/28 22:50:04;;;;;;;29.50;22.27;;;8.40;99.90;;;;;;5057263;28;20535;-90
2021/10/28 22:52:34;;;;;;;28.30;21.33;;;8.40;99.90;;;;;;5055992;28;20468;-90